< < Back
Terminal Aerodrome Forecast


Current Version              Previous Versions:   1  2  3  4  5  6  7  8  9  

Terminal Aerodrome Forecast

085
FTUS44 KMOB 280547
TAFMOB
TAF
KMOB 280547Z 2806/2906 VRB05KT P6SM SCT250
     FM281700 21008KT P6SM SCT050 SCT250
     FM290100 17003KT P6SM SCT250=



Latest METAR

015
SAUS80 KWBC 290200
MTRMOB
METAR KMOB 290156Z 00000KT 10SM FEW250 27/23 A3003 RMK AO2 SLP167
T02670233


USA.gov is the U.S. government's official web portal to all federal, state and local government web resources and services.